createdAt,value
2022-12-08T00:01:24.071Z,7.68
2022-12-08T00:03:51.842Z,5.60
2022-12-08T00:06:52.546Z,11.43
2022-12-08T00:09:39.424Z,9.20
2022-12-08T00:12:12.804Z,3.80
2022-12-08T00:14:42.160Z,6.93
2022-12-08T00:17:10.887Z,8.23
2022-12-08T00:19:41.485Z,7.13
2022-12-08T00:22:10.180Z,11.52
2022-12-08T00:24:39.738Z,8.00
2022-12-08T00:27:08.007Z,6.95
2022-12-08T00:29:34.945Z,3.70
2022-12-08T00:32:01.839Z,9.98
2022-12-08T00:34:28.696Z,5.43
2022-12-08T00:36:55.489Z,5.63
2022-12-08T00:39:22.559Z,4.75
2022-12-08T00:42:08.052Z,7.22
2022-12-08T00:44:34.942Z,14.57
2022-12-08T00:47:01.746Z,6.55
2022-12-08T00:49:28.518Z,10.57
2022-12-08T00:51:55.518Z,4.72
2022-12-08T00:54:25.698Z,5.35
2022-12-08T00:56:52.745Z,6.78
2022-12-08T00:59:19.638Z,5.13
2022-12-08T01:01:47.754Z,7.35
2022-12-08T01:04:16.713Z,6.85
2022-12-08T01:06:44.496Z,9.52
2022-12-08T01:09:12.707Z,5.38
2022-12-08T01:11:39.537Z,5.15
2022-12-08T01:14:06.365Z,8.65
2022-12-08T01:16:35.908Z,3.83
2022-12-08T01:19:03.938Z,8.40
2022-12-08T01:21:30.754Z,8.70
2022-12-08T01:24:00.326Z,6.18
2022-12-08T01:26:27.203Z,9.25
2022-12-08T01:28:54.203Z,4.68
2022-12-08T01:31:22.651Z,4.95
2022-12-08T01:33:50.184Z,8.27
2022-12-08T01:36:28.104Z,13.25
2022-12-08T01:38:57.988Z,6.55
2022-12-08T01:41:27.052Z,9.68
2022-12-08T01:43:59.175Z,12.55
2022-12-08T01:46:27.934Z,8.80
2022-12-08T01:49:05.771Z,9.82
2022-12-08T01:51:37.519Z,10.18
2022-12-08T01:54:05.722Z,11.40
2022-12-08T01:56:56.115Z,5.03
2022-12-08T01:59:24.011Z,8.88
2022-12-08T02:01:51.777Z,10.05
2022-12-08T02:04:18.899Z,8.88
2022-12-08T02:06:47.607Z,8.23
2022-12-08T02:09:15.019Z,8.20
2022-12-08T02:11:41.853Z,14.05
2022-12-08T02:14:10.764Z,7.13
2022-12-08T02:17:03.331Z,11.65
2022-12-08T02:19:57.665Z,13.43
2022-12-08T02:22:38.215Z,8.32
2022-12-08T02:25:26.612Z,9.40
2022-12-08T02:28:30.527Z,7.07
2022-12-08T02:31:22.529Z,8.07
2022-12-08T02:34:10.291Z,9.05
2022-12-08T02:36:42.951Z,5.10
2022-12-08T02:39:24.783Z,7.47
2022-12-08T02:42:21.233Z,17.45
2022-12-08T02:45:05.213Z,7.70
2022-12-08T02:47:34.266Z,8.65
2022-12-08T02:50:01.241Z,12.40
2022-12-08T02:52:28.147Z,10.15
2022-12-08T02:54:59.526Z,7.45
2022-12-08T02:57:32.113Z,10.98
2022-12-08T03:00:09.640Z,8.75
2022-12-08T03:02:55.545Z,8.30
2022-12-08T03:05:47.520Z,7.45
2022-12-08T03:08:34.495Z,8.90
2022-12-08T03:11:09.513Z,9.95
2022-12-08T03:13:46.376Z,8.10
2022-12-08T03:16:18.501Z,8.98
2022-12-08T03:18:51.233Z,15.07
2022-12-08T03:21:19.476Z,11.65
2022-12-08T03:23:50.905Z,10.00
2022-12-08T03:26:38.863Z,9.13
2022-12-08T03:29:06.342Z,6.47
2022-12-08T03:31:38.122Z,8.98
2022-12-08T03:34:05.650Z,10.80
2022-12-08T03:36:32.710Z,5.88
2022-12-08T03:39:00.217Z,12.18
2022-12-08T03:41:27.035Z,10.13
2022-12-08T03:43:58.340Z,11.43
2022-12-08T03:48:53.744Z,10.88
2022-12-08T03:51:21.304Z,11.35
2022-12-08T03:53:48.520Z,11.63
2022-12-08T03:56:30.944Z,8.98
2022-12-08T03:58:58.110Z,10.82
2022-12-08T04:01:25.413Z,7.97
2022-12-08T04:03:52.782Z,8.48
2022-12-08T04:06:20.768Z,10.43
2022-12-08T04:08:48.050Z,12.52
2022-12-08T04:11:15.513Z,9.90
2022-12-08T04:13:42.943Z,11.57
2022-12-08T04:16:16.626Z,13.38
2022-12-08T04:18:43.695Z,9.93
2022-12-08T04:21:10.586Z,8.95
2022-12-08T04:23:37.586Z,11.90
2022-12-08T04:26:04.569Z,10.60
2022-12-08T04:28:31.731Z,19.17
2022-12-08T04:30:58.697Z,8.38
2022-12-08T04:33:25.584Z,15.60
2022-12-08T04:35:52.398Z,13.23
2022-12-08T04:38:19.218Z,11.52
2022-12-08T04:40:46.070Z,10.43
2022-12-08T04:43:12.834Z,11.73
2022-12-08T04:45:43.306Z,11.13
2022-12-08T04:48:13.170Z,10.25
2022-12-08T04:50:41.998Z,10.68
2022-12-08T04:53:09.638Z,12.65
2022-12-08T04:55:44.267Z,9.68
2022-12-08T04:58:15.487Z,11.57
2022-12-08T05:00:42.860Z,13.65
2022-12-08T05:03:10.551Z,13.10
2022-12-08T05:05:37.413Z,11.57
2022-12-08T05:08:05.077Z,13.23
2022-12-08T05:10:32.445Z,11.35
2022-12-08T05:13:00.079Z,9.02
2022-12-08T05:15:27.006Z,14.48
2022-12-08T05:17:53.992Z,11.00
2022-12-08T05:20:21.056Z,11.05
2022-12-08T05:22:47.964Z,13.55
2022-12-08T05:25:15.004Z,18.25
2022-12-08T05:27:43.082Z,10.45
2022-12-08T05:30:10.050Z,11.25
2022-12-08T05:32:36.875Z,12.52
2022-12-08T05:35:03.755Z,13.50
2022-12-08T05:37:30.529Z,12.25
2022-12-08T05:39:57.410Z,13.43
2022-12-08T05:42:25.066Z,11.40
2022-12-08T05:44:52.419Z,9.88
2022-12-08T05:47:19.346Z,16.52
2022-12-08T05:49:46.228Z,11.43
2022-12-08T05:52:13.101Z,14.52
2022-12-08T05:54:39.919Z,10.52
2022-12-08T05:57:06.818Z,8.88
2022-12-08T05:59:33.653Z,12.50
2022-12-08T06:02:00.835Z,9.90
2022-12-08T06:04:27.879Z,14.10
2022-12-08T06:06:54.800Z,8.57
2022-12-08T06:09:21.850Z,8.32
2022-12-08T06:11:48.755Z,12.05
2022-12-08T06:14:15.535Z,9.02
2022-12-08T06:16:42.534Z,11.38
2022-12-08T06:19:09.435Z,9.38
2022-12-08T06:21:36.226Z,10.15
2022-12-08T06:24:03.108Z,8.23
2022-12-08T06:26:30.044Z,11.20
2022-12-08T06:28:56.874Z,10.65
2022-12-08T06:31:25.678Z,6.72
2022-12-08T06:33:54.119Z,10.98
2022-12-08T06:36:24.571Z,7.35
2022-12-08T06:38:51.839Z,9.55
2022-12-08T06:41:18.980Z,8.40
2022-12-08T06:43:45.816Z,12.25
2022-12-08T06:46:15.889Z,8.30
2022-12-08T06:48:43.322Z,7.63
2022-12-08T06:51:15.506Z,13.38
2022-12-08T06:53:43.398Z,7.38
2022-12-08T06:56:11.186Z,11.23
2022-12-08T06:58:38.232Z,9.95
2022-12-08T07:01:13.005Z,9.27
2022-12-08T07:03:40.729Z,7.25
2022-12-08T07:06:07.705Z,15.52
2022-12-08T07:08:35.176Z,11.60
2022-12-08T07:11:10.385Z,8.73
2022-12-08T07:13:37.187Z,8.18
2022-12-08T07:16:11.447Z,10.07
2022-12-08T07:18:39.105Z,6.90
2022-12-08T07:21:07.884Z,5.97
2022-12-08T07:23:35.273Z,4.60
2022-12-08T07:26:04.030Z,6.15
2022-12-08T07:28:35.462Z,5.65
2022-12-08T07:31:02.855Z,5.15
2022-12-08T07:33:30.231Z,9.80
2022-12-08T07:35:58.496Z,6.03
2022-12-08T07:38:26.122Z,7.20
2022-12-08T07:40:53.886Z,7.15
2022-12-08T07:43:22.010Z,10.13
2022-12-08T07:45:49.868Z,8.02
2022-12-08T07:48:17.208Z,9.32
2022-12-08T07:50:44.798Z,13.23
2022-12-08T07:53:11.943Z,13.05
2022-12-08T07:55:43.079Z,11.82
2022-12-08T07:58:10.418Z,7.97
2022-12-08T08:00:37.801Z,13.25
2022-12-08T08:03:04.709Z,9.98
2022-12-08T08:05:31.543Z,9.57
2022-12-08T08:07:58.449Z,9.45
2022-12-08T08:10:25.283Z,9.10
2022-12-08T08:12:52.146Z,11.35
2022-12-08T08:15:21.115Z,9.70
2022-12-08T08:17:51.562Z,8.50
2022-12-08T08:20:19.868Z,8.85
2022-12-08T08:22:48.247Z,10.10
2022-12-08T08:25:15.560Z,9.48
2022-12-08T08:27:42.619Z,8.68
2022-12-08T08:30:18.189Z,6.85
2022-12-08T08:32:47.443Z,5.90
2022-12-08T08:35:14.398Z,8.38
2022-12-08T08:37:45.592Z,9.05
2022-12-08T08:40:15.482Z,7.80
2022-12-08T08:42:42.463Z,8.95
2022-12-08T08:45:09.643Z,8.15
2022-12-08T08:47:36.527Z,6.95
2022-12-08T08:50:04.454Z,9.88
2022-12-08T08:52:31.488Z,7.75
2022-12-08T08:54:58.409Z,4.38
2022-12-08T08:57:26.199Z,6.68
2022-12-08T08:59:54.107Z,5.57
2022-12-08T09:02:21.319Z,9.10
2022-12-08T09:04:48.584Z,4.50
2022-12-08T09:07:16.027Z,6.32
2022-12-08T09:09:43.092Z,3.70
2022-12-08T09:12:10.502Z,2.60
2022-12-08T09:14:37.339Z,3.38
2022-12-08T09:17:04.964Z,4.90
2022-12-08T09:19:31.779Z,8.20
2022-12-08T09:21:58.622Z,5.32
2022-12-08T09:24:25.469Z,5.88
2022-12-08T09:26:52.391Z,3.28
2022-12-08T09:29:19.256Z,4.38
2022-12-08T09:31:46.140Z,9.18
2022-12-08T09:34:13.188Z,6.88
2022-12-08T09:36:40.475Z,2.83
2022-12-08T09:39:07.583Z,4.20
2022-12-08T09:41:49.931Z,5.25
2022-12-08T09:44:35.621Z,2.17
2022-12-08T09:47:05.446Z,4.90
2022-12-08T09:50:02.580Z,3.30
2022-12-08T09:52:45.054Z,4.25
2022-12-08T09:55:22.826Z,4.63
2022-12-08T09:58:00.116Z,5.05
2022-12-08T10:00:27.035Z,2.42
2022-12-08T10:02:55.169Z,2.38
2022-12-08T10:05:25.750Z,4.07
2022-12-08T10:08:01.270Z,2.83
2022-12-08T10:10:46.898Z,3.30
2022-12-08T10:13:34.305Z,2.67
2022-12-08T10:16:19.852Z,3.00
2022-12-08T10:19:00.245Z,8.13
2022-12-08T10:21:28.943Z,2.20
2022-12-08T10:24:04.027Z,5.63
2022-12-08T10:26:32.720Z,4.45
2022-12-08T10:29:02.896Z,4.78
2022-12-08T10:31:32.088Z,4.78
2022-12-08T10:34:15.223Z,3.35
2022-12-08T10:36:47.856Z,3.30
2022-12-08T10:39:39.223Z,2.50
2022-12-08T10:42:18.835Z,5.50
2022-12-08T10:45:00.785Z,7.18
2022-12-08T10:47:29.278Z,2.03
2022-12-08T10:50:18.947Z,3.00
2022-12-08T10:52:53.685Z,4.53
2022-12-08T10:55:21.792Z,8.90
2022-12-08T10:57:49.176Z,5.80
2022-12-08T11:00:19.029Z,2.78
2022-12-08T11:03:22.169Z,6.03
2022-12-08T11:05:49.290Z,3.33
2022-12-08T11:08:16.483Z,5.30
2022-12-08T11:10:45.176Z,2.25
2022-12-08T11:13:19.737Z,6.00
2022-12-08T11:15:47.023Z,8.23
2022-12-08T11:18:29.604Z,8.38
2022-12-08T11:21:06.934Z,6.20
2022-12-08T11:23:36.986Z,14.93
2022-12-08T11:26:27.922Z,14.25
2022-12-08T11:28:55.637Z,10.40
2022-12-08T11:31:34.000Z,11.13
2022-12-08T11:34:03.102Z,6.32
2022-12-08T11:36:33.544Z,8.25
2022-12-08T11:39:03.390Z,6.72
2022-12-08T11:41:36.027Z,11.02
2022-12-08T11:44:13.225Z,6.53
2022-12-08T11:46:53.365Z,6.85
2022-12-08T11:49:20.680Z,9.27
2022-12-08T11:52:02.457Z,9.30
2022-12-08T11:54:36.707Z,7.32
2022-12-08T11:57:08.761Z,7.78
2022-12-08T11:59:47.198Z,7.75
2022-12-08T12:02:34.359Z,11.25
2022-12-08T12:05:40.141Z,8.35
2022-12-08T12:08:41.087Z,13.70
2022-12-08T12:11:07.924Z,11.73
2022-12-08T12:13:34.738Z,11.68
2022-12-08T12:16:51.317Z,11.48
2022-12-08T12:19:21.479Z,9.85
2022-12-08T12:21:56.764Z,9.23
2022-12-08T12:24:36.175Z,11.82
2022-12-08T12:27:06.722Z,8.35
2022-12-08T12:29:37.353Z,8.77
2022-12-08T12:32:10.272Z,14.50
2022-12-08T12:34:48.665Z,7.88
2022-12-08T12:37:24.167Z,10.27
2022-12-08T12:39:59.793Z,11.50
2022-12-08T12:42:38.219Z,8.25
2022-12-08T12:45:17.278Z,11.68
2022-12-08T12:47:56.308Z,8.50
2022-12-08T12:50:38.644Z,11.80
2022-12-08T12:53:15.416Z,10.90
2022-12-08T12:55:57.036Z,13.70
2022-12-08T12:58:29.773Z,11.10
2022-12-08T13:01:19.665Z,12.95
2022-12-08T13:04:02.338Z,12.38
2022-12-08T13:06:45.573Z,9.83
2022-12-08T13:09:41.578Z,10.23
2022-12-08T13:12:19.874Z,9.70
2022-12-08T13:14:50.461Z,8.77
2022-12-08T13:17:28.097Z,12.30
2022-12-08T13:19:57.711Z,10.68
2022-12-08T13:22:57.442Z,8.93
2022-12-08T13:26:09.643Z,9.43
2022-12-08T13:28:59.475Z,13.82
2022-12-08T13:31:35.469Z,10.18
2022-12-08T13:34:13.227Z,9.80
2022-12-08T13:36:47.732Z,16.65
2022-12-08T13:39:40.448Z,11.43
2022-12-08T13:42:13.394Z,12.30
2022-12-08T13:48:30.175Z,9.73
2022-12-08T13:52:41.505Z,8.60
2022-12-08T13:59:30.251Z,9.45
2022-12-08T14:02:04.505Z,9.48
2022-12-08T14:05:08.863Z,11.77
2022-12-08T14:07:19.208Z,10.50
2022-12-08T14:09:46.676Z,8.43
2022-12-08T14:12:27.739Z,9.90
2022-12-08T14:15:03.878Z,12.63
2022-12-08T14:17:32.254Z,7.00
2022-12-08T14:20:14.036Z,8.65
2022-12-08T14:22:42.079Z,9.65
2022-12-08T14:25:15.985Z,7.68
2022-12-08T14:27:43.452Z,10.38
2022-12-08T14:30:16.202Z,6.65
2022-12-08T14:32:48.061Z,7.60
2022-12-08T14:35:25.667Z,5.90
2022-12-08T14:37:57.465Z,9.13
2022-12-08T14:40:28.717Z,10.38
2022-12-08T14:43:07.963Z,9.77
2022-12-08T14:46:00.118Z,10.95
2022-12-08T14:48:31.729Z,6.20
2022-12-08T14:51:23.772Z,5.45
2022-12-08T14:54:14.365Z,9.60
2022-12-08T14:56:54.909Z,4.72
2022-12-08T14:59:30.280Z,7.82
2022-12-08T15:02:16.063Z,9.00
2022-12-08T15:04:48.619Z,10.52
2022-12-08T15:07:18.714Z,12.77
2022-12-08T15:09:49.001Z,6.22
2022-12-08T15:12:15.790Z,10.20
2022-12-08T15:15:03.057Z,8.52
2022-12-08T15:17:42.136Z,4.90
2022-12-08T15:20:35.467Z,5.80
2022-12-08T15:23:03.183Z,8.18
2022-12-08T15:25:30.091Z,13.13
2022-12-08T15:27:57.997Z,6.38
2022-12-08T15:30:28.803Z,7.10
2022-12-08T15:32:56.517Z,5.80
2022-12-08T15:35:24.329Z,6.13
2022-12-08T15:37:51.206Z,7.47
2022-12-08T15:40:20.650Z,5.85
2022-12-08T15:42:47.797Z,4.90
2022-12-08T15:45:16.465Z,4.88
2022-12-08T15:47:44.679Z,10.10
2022-12-08T15:50:17.024Z,10.35
2022-12-08T15:52:44.312Z,10.20
2022-12-08T15:55:15.402Z,7.15
2022-12-08T16:00:53.134Z,13.25
2022-12-08T16:09:21.660Z,6.63
2022-12-08T16:12:09.094Z,6.90
2022-12-08T16:17:25.842Z,7.78
2022-12-08T16:19:52.859Z,8.00
2022-12-08T16:25:18.112Z,10.90
2022-12-08T16:30:34.948Z,10.30
2022-12-08T16:33:02.166Z,7.18
2022-12-08T16:35:29.297Z,6.15
2022-12-08T16:37:56.247Z,7.05
2022-12-08T16:40:23.452Z,7.43
2022-12-08T16:42:50.576Z,8.98
2022-12-08T16:45:24.543Z,14.82
2022-12-08T16:48:04.624Z,9.07
2022-12-08T16:50:34.930Z,12.55
2022-12-08T16:53:05.700Z,4.80
2022-12-08T16:55:33.761Z,3.40
2022-12-08T16:58:02.700Z,5.90
2022-12-08T17:00:31.252Z,4.43
2022-12-08T17:02:59.012Z,8.88
2022-12-08T17:05:26.596Z,8.93
2022-12-08T17:07:54.396Z,10.10
2022-12-08T17:10:28.101Z,10.43
2022-12-08T17:12:55.673Z,8.30
2022-12-08T17:15:24.859Z,6.57
2022-12-08T17:17:52.931Z,7.97
2022-12-08T17:20:23.254Z,6.38
2022-12-08T17:22:50.754Z,6.57
2022-12-08T17:25:17.964Z,9.05
2022-12-08T17:27:45.072Z,8.55
2022-12-08T17:30:15.828Z,6.18
2022-12-08T17:32:43.394Z,7.38
2022-12-08T17:35:11.138Z,6.18
2022-12-08T17:37:37.975Z,7.80
2022-12-08T17:40:05.874Z,7.93
2022-12-08T17:42:32.960Z,6.85
2022-12-08T17:44:59.811Z,7.75
2022-12-08T17:47:26.897Z,11.30
2022-12-08T17:49:54.440Z,8.13
2022-12-08T17:52:21.346Z,8.98
2022-12-08T17:54:48.293Z,10.52
2022-12-08T17:57:15.195Z,11.82
2022-12-08T17:59:42.075Z,6.85
2022-12-08T18:02:11.820Z,8.82
2022-12-08T18:04:39.652Z,9.98
2022-12-08T18:07:06.658Z,8.32
2022-12-08T18:09:34.146Z,14.07
2022-12-08T18:12:01.107Z,7.55
2022-12-08T18:14:28.269Z,7.03
2022-12-08T18:16:55.477Z,7.95
2022-12-08T18:19:22.664Z,8.55
2022-12-08T18:21:49.727Z,8.55
2022-12-08T18:24:23.236Z,9.90
2022-12-08T18:26:52.188Z,7.45
2022-12-08T18:29:21.174Z,12.13
2022-12-08T18:31:48.274Z,7.95
2022-12-08T18:34:15.195Z,9.05
2022-12-08T18:36:42.568Z,10.88
2022-12-08T18:39:24.565Z,9.88
2022-12-08T18:41:52.859Z,9.70
2022-12-08T18:44:23.664Z,11.55
2022-12-08T18:46:50.750Z,11.13
2022-12-08T18:49:19.921Z,7.85
2022-12-08T18:51:47.207Z,9.93
2022-12-08T18:54:14.334Z,10.63
2022-12-08T18:56:41.363Z,10.35
2022-12-08T18:59:11.984Z,13.18
2022-12-08T19:01:40.278Z,13.35
2022-12-08T19:04:27.965Z,10.68
2022-12-08T19:06:55.824Z,11.07
2022-12-08T19:09:22.893Z,8.55
2022-12-08T19:11:50.521Z,9.10
2022-12-08T19:14:21.245Z,8.00
2022-12-08T19:16:51.977Z,7.00
2022-12-08T19:19:19.301Z,10.88
2022-12-08T19:21:46.877Z,8.38
2022-12-08T19:24:13.827Z,13.85
2022-12-08T19:26:42.436Z,9.73
2022-12-08T19:29:09.715Z,7.40
2022-12-08T19:31:36.958Z,11.02
2022-12-08T19:34:05.591Z,12.27
2022-12-08T19:36:35.588Z,10.20
2022-12-08T19:39:22.996Z,13.07
2022-12-08T19:42:09.353Z,9.98
2022-12-08T19:44:54.716Z,19.55
2022-12-08T19:47:26.303Z,11.63
2022-12-08T19:49:55.093Z,18.23
2022-12-08T19:52:22.354Z,13.65
2022-12-08T19:54:49.206Z,15.57
2022-12-08T19:57:16.375Z,12.70
2022-12-08T19:59:43.321Z,11.85
2022-12-08T20:02:11.344Z,14.85
2022-12-08T20:04:38.202Z,11.70
2022-12-08T20:07:05.119Z,13.70
2022-12-08T20:09:32.158Z,14.23
2022-12-08T20:11:58.922Z,17.10
2022-12-08T20:14:25.768Z,16.02
2022-12-08T20:16:52.826Z,15.15
2022-12-08T20:19:19.915Z,13.40
2022-12-08T20:21:46.869Z,12.63
2022-12-08T20:24:13.681Z,12.73
2022-12-08T20:26:40.624Z,10.10
2022-12-08T20:29:07.480Z,13.95
2022-12-08T20:31:34.478Z,13.90
2022-12-08T20:34:01.903Z,12.93
2022-12-08T20:36:29.353Z,14.18
2022-12-08T20:38:56.251Z,11.70
2022-12-08T20:41:23.693Z,14.73
2022-12-08T20:43:51.711Z,15.40
2022-12-08T20:46:19.867Z,11.60
2022-12-08T20:48:47.277Z,12.73
2022-12-08T20:51:16.422Z,15.02
2022-12-08T20:53:43.721Z,16.40
2022-12-08T20:56:18.580Z,13.60
2022-12-08T20:58:45.809Z,14.00
2022-12-08T21:01:14.816Z,9.73
2022-12-08T21:03:42.251Z,12.95
2022-12-08T21:06:09.617Z,12.30
2022-12-08T21:08:36.942Z,16.08
2022-12-08T21:11:05.287Z,12.65
2022-12-08T21:13:32.652Z,13.48
2022-12-08T21:15:59.819Z,12.70
2022-12-08T21:18:27.037Z,20.25
2022-12-08T21:21:04.905Z,15.65
2022-12-08T21:23:31.946Z,12.50
2022-12-08T21:25:58.857Z,16.73
2022-12-08T21:28:25.846Z,13.02
2022-12-08T21:30:52.728Z,17.35
2022-12-08T21:33:19.919Z,15.43
2022-12-08T21:35:47.222Z,18.33
2022-12-08T21:38:14.300Z,18.17
2022-12-08T21:40:41.233Z,18.10
2022-12-08T21:43:08.405Z,19.00
2022-12-08T21:45:35.427Z,21.52
2022-12-08T21:48:10.814Z,21.17
2022-12-08T21:50:39.003Z,25.02
2022-12-08T21:53:05.947Z,23.13
2022-12-08T21:55:32.973Z,19.35
2022-12-08T21:58:01.135Z,20.73
2022-12-08T22:00:28.661Z,16.48
2022-12-08T22:02:55.883Z,16.98
2022-12-08T22:05:23.086Z,15.15
2022-12-08T22:07:50.081Z,16.70
2022-12-08T22:10:17.448Z,16.42
2022-12-08T22:12:44.358Z,15.95
2022-12-08T22:15:11.653Z,19.23
2022-12-08T22:17:41.214Z,17.25
2022-12-08T22:20:11.946Z,17.52
2022-12-08T22:22:39.947Z,15.60
2022-12-08T22:25:10.959Z,19.00
2022-12-08T22:27:38.980Z,16.95
2022-12-08T22:30:07.174Z,17.30
2022-12-08T22:32:34.373Z,21.23
2022-12-08T22:35:01.660Z,21.85
2022-12-08T22:37:28.851Z,17.95
2022-12-08T22:39:55.785Z,22.35
2022-12-08T22:42:22.669Z,20.73
2022-12-08T22:44:49.521Z,21.40
2022-12-08T22:47:16.469Z,19.77
2022-12-08T22:49:43.445Z,19.67
2022-12-08T22:52:10.245Z,20.23
2022-12-08T22:54:37.066Z,20.45
2022-12-08T22:57:04.090Z,21.10
2022-12-08T22:59:33.309Z,21.20
2022-12-08T23:02:00.385Z,20.10
2022-12-08T23:04:28.204Z,17.35
2022-12-08T23:06:55.176Z,18.50
2022-12-08T23:09:22.177Z,15.88
2022-12-08T23:11:49.279Z,17.60
2022-12-08T23:14:16.350Z,14.60
2022-12-08T23:16:43.929Z,14.88
2022-12-08T23:19:11.057Z,16.23
2022-12-08T23:21:38.136Z,16.60
2022-12-08T23:24:05.325Z,13.85
2022-12-08T23:26:34.868Z,12.82
2022-12-08T23:29:02.158Z,14.90
2022-12-08T23:31:29.244Z,16.92
2022-12-08T23:33:56.468Z,13.75
2022-12-08T23:36:27.344Z,14.70
2022-12-08T23:38:55.075Z,15.52
2022-12-08T23:41:22.144Z,14.90
2022-12-08T23:43:51.299Z,14.30
2022-12-08T23:46:20.306Z,15.35
2022-12-08T23:48:47.530Z,16.38
2022-12-08T23:51:15.203Z,15.50
2022-12-08T23:53:42.668Z,15.43
2022-12-08T23:56:12.690Z,11.70
2022-12-08T23:58:41.129Z,15.35
